createdAt,value
2023-04-08T05:42:26.864Z,9.13
2023-04-08T05:45:33.491Z,9.43
2023-04-08T05:48:38.000Z,8.20
2023-04-08T05:51:44.259Z,10.02
2023-04-08T05:54:48.275Z,10.25
2023-04-08T05:57:56.453Z,10.68
2023-04-08T06:01:00.398Z,9.80
2023-04-08T06:04:06.996Z,14.73
2023-04-08T06:07:11.396Z,8.57
2023-04-08T06:10:17.596Z,8.07
2023-04-08T06:13:25.106Z,11.82
2023-04-08T06:16:31.132Z,12.02
2023-04-08T06:19:35.123Z,16.00
2023-04-08T06:22:41.167Z,14.77
2023-04-08T06:25:45.763Z,16.10
2023-04-08T06:28:53.747Z,16.52
2023-04-08T06:32:00.871Z,17.33
2023-04-08T06:35:08.412Z,18.50
2023-04-08T06:38:12.598Z,19.77
2023-04-08T06:41:18.832Z,14.30
2023-04-08T06:44:24.856Z,15.57
2023-04-08T06:47:31.150Z,20.77
2023-04-08T06:50:35.513Z,15.52
2023-04-08T06:53:41.571Z,16.33
2023-04-08T06:56:45.536Z,16.52
2023-04-08T06:59:54.552Z,14.15
2023-04-08T07:02:58.509Z,15.27
2023-04-08T07:06:06.293Z,16.35
2023-04-08T07:09:11.100Z,16.63
2023-04-08T07:12:17.433Z,16.42
2023-04-08T07:15:23.329Z,19.02
2023-04-08T07:18:29.280Z,19.05
2023-04-08T07:24:42.369Z,22.08
2023-04-08T07:27:46.373Z,16.80
2023-04-08T07:30:54.823Z,18.05
2023-04-08T07:33:58.985Z,18.88
2023-04-08T07:37:05.304Z,17.38
2023-04-08T07:40:10.921Z,17.77
2023-04-08T07:43:17.176Z,15.40
2023-04-08T07:46:23.402Z,18.10
2023-04-08T07:49:29.849Z,15.02
2023-04-08T07:52:34.242Z,19.25
2023-04-08T07:55:41.969Z,17.30
2023-04-08T07:58:46.303Z,22.38
2023-04-08T08:01:54.878Z,15.80
2023-04-08T08:04:59.192Z,15.63
2023-04-08T08:08:07.068Z,15.45
2023-04-08T08:11:11.347Z,16.30
2023-04-08T08:14:17.578Z,15.80
2023-04-08T08:17:25.040Z,15.57
2023-04-08T08:20:32.464Z,12.75
2023-04-08T08:26:44.626Z,14.27
2023-04-08T08:29:48.561Z,15.23
2023-04-08T08:32:58.645Z,16.33
2023-04-08T08:36:04.148Z,14.98
2023-04-08T08:39:10.316Z,17.08
2023-04-08T08:42:21.897Z,15.13
2023-04-08T08:45:28.210Z,14.75
2023-04-08T08:48:36.315Z,13.93
2023-04-08T08:51:43.233Z,14.20
2023-04-08T08:54:47.622Z,17.13
2023-04-08T08:57:54.086Z,14.82
2023-04-08T09:00:58.146Z,16.17
2023-04-08T09:04:16.042Z,18.02
2023-04-08T09:07:25.940Z,16.83
2023-04-08T09:10:31.883Z,16.05
2023-04-08T09:16:45.009Z,18.20
2023-04-08T09:20:11.824Z,15.30
2023-04-08T09:23:18.403Z,14.77
2023-04-08T09:26:26.956Z,13.73
2023-04-08T09:29:35.927Z,14.75
2023-04-08T09:32:49.582Z,15.50
2023-04-08T09:35:57.979Z,15.70
2023-04-08T09:39:01.983Z,15.55
2023-04-08T09:42:13.372Z,17.23
2023-04-08T09:45:18.490Z,16.92
2023-04-08T09:48:29.570Z,21.88
2023-04-08T09:51:41.928Z,21.13
2023-04-08T09:54:56.542Z,22.80
2023-04-08T09:58:03.715Z,20.85
2023-04-08T10:01:11.581Z,20.48
2023-04-08T10:04:20.223Z,24.27
2023-04-08T10:07:29.027Z,22.98
2023-04-08T10:10:33.435Z,26.85
2023-04-08T10:13:39.596Z,24.15
2023-04-08T10:16:43.676Z,24.75
2023-04-08T10:19:49.855Z,21.92
2023-04-08T10:22:55.931Z,22.55
2023-04-08T10:26:01.896Z,23.77
2023-04-08T10:32:31.164Z,18.15
2023-04-08T10:35:41.344Z,19.55
2023-04-08T10:38:49.268Z,22.65
2023-04-08T10:41:53.360Z,21.23
2023-04-08T10:45:03.316Z,23.90
2023-04-08T10:48:18.050Z,23.83
2023-04-08T10:51:24.561Z,21.90
2023-04-08T10:54:30.610Z,21.35
2023-04-08T10:57:36.719Z,21.98
2023-04-08T11:00:42.079Z,19.23
2023-04-08T11:03:48.594Z,20.08
2023-04-08T11:06:53.149Z,21.23
2023-04-08T11:10:05.566Z,18.85
2023-04-08T11:13:10.884Z,23.58
2023-04-08T11:16:18.592Z,17.20
2023-04-08T11:19:22.972Z,19.92
2023-04-08T11:22:30.536Z,18.88
2023-04-08T11:25:37.072Z,21.30
2023-04-08T11:28:43.278Z,22.98
2023-04-08T11:31:49.132Z,19.90
2023-04-08T11:34:55.244Z,23.42
2023-04-08T11:37:59.764Z,24.73
2023-04-08T11:41:07.858Z,24.55
2023-04-08T11:44:11.945Z,22.50
2023-04-08T11:47:17.938Z,22.90
2023-04-08T11:53:31.600Z,17.85
2023-04-08T11:59:52.219Z,23.65
2023-04-08T12:02:56.584Z,17.23
2023-04-08T12:06:04.013Z,19.73
2023-04-08T12:09:07.946Z,21.20
2023-04-08T12:12:16.398Z,21.05
2023-04-08T12:15:20.578Z,23.95
2023-04-08T12:18:26.570Z,21.70
2023-04-08T12:24:37.919Z,18.80
2023-04-08T12:30:49.594Z,18.08
2023-04-08T12:36:59.851Z,20.10
2023-04-08T12:40:03.998Z,16.75
2023-04-08T12:43:12.263Z,17.15
2023-04-08T12:46:16.406Z,18.77
2023-04-08T12:49:23.454Z,19.35
2023-04-08T12:52:27.701Z,17.02
2023-04-08T12:55:33.837Z,14.60
2023-04-08T12:58:40.164Z,19.25
2023-04-08T13:01:46.700Z,16.55
2023-04-08T13:04:51.795Z,15.32
2023-04-08T13:07:57.864Z,17.42
2023-04-08T13:14:09.657Z,11.15
2023-04-08T13:17:13.674Z,15.50
2023-04-08T13:20:20.157Z,14.90
2023-04-08T13:23:24.326Z,14.10
2023-04-08T13:26:30.304Z,15.77
2023-04-08T13:29:36.182Z,15.20
2023-04-08T13:32:42.534Z,19.05
2023-04-08T13:35:46.545Z,17.02
2023-04-08T13:38:53.195Z,17.73
2023-04-08T13:41:57.266Z,21.88
2023-04-08T13:45:05.678Z,17.25
2023-04-08T13:48:09.725Z,15.45
2023-04-08T13:51:16.054Z,17.23
2023-04-08T13:54:20.025Z,19.70
2023-04-08T13:57:26.262Z,18.38
2023-04-08T14:03:38.250Z,19.13
2023-04-08T14:06:43.278Z,16.10
2023-04-08T14:09:49.482Z,17.45
2023-04-08T14:12:53.911Z,20.42
2023-04-08T14:16:02.646Z,17.85
2023-04-08T14:19:06.646Z,20.20
2023-04-08T14:22:12.917Z,18.08
2023-04-08T14:25:16.959Z,24.80
2023-04-08T14:28:22.944Z,18.45
2023-04-08T14:34:34.729Z,18.65
